Terminal Aerodrome Forecast
Issued by NWS

Home | Current Version | Previous Version | Text Only | Print | Product List | Glossary On
Versions: 1 2 3 4 5 6 7 8 9 10 11 12 13 14 15 16 17 18
000
FTAK31 PAFA 271126
TAFAQT
TAF
PAQT 271126Z 2712/2812 08009KT P6SM OVC004
     FM271900 08010KT 6SM BR SCT006 BKN015
     FM280100 08014KT P6SM SCT015 BKN050
     FM280700 08014KT P6SM SCT050 BKN200=

USA.gov is the U.S. government's official web portal to all federal, state and local government web resources and services.